Time;durP1;ratioP1;P1;durP2;ratioP2;P2;SDS_P1;SDS_P2;PMS_P1;PMS_P2;Temp;Humidity;BMP_temperature;BMP_pressure;BME280_temperature;BME280_humidity;BME280_pressure;Samples;Min_cycle;Max_cycle;Signal;HPM_P1;HPM_P2
2022/07/26 00:02:19;;;;;;;10.95;6.57;;;;;;;20.93;68.60;98679.63;5054117;28;20454;-67
2022/07/26 00:04:46;;;;;;;9.50;6.03;;;;;;;20.91;68.94;98684.13;5053683;28;20477;-68
2022/07/26 00:07:14;;;;;;;11.13;5.90;;;;;;;20.89;68.83;98678.88;5053430;28;20053;-68
2022/07/26 00:09:41;;;;;;;12.23;6.18;;;;;;;20.88;68.78;98673.66;5053010;28;20562;-69
2022/07/26 00:12:14;;;;;;;9.43;6.07;;;;;;;20.86;68.85;98676.09;5053879;28;20048;-67
2022/07/26 00:14:42;;;;;;;9.05;6.45;;;;;;;20.85;68.83;98680.97;5054269;28;20053;-68
2022/07/26 00:17:09;;;;;;;9.57;6.65;;;;;;;20.83;68.87;98674.09;5035863;28;20563;-68
2022/07/26 00:19:36;;;;;;;11.23;6.55;;;;;;;20.81;69.06;98679.41;5053604;28;20132;-68
2022/07/26 00:24:48;;;;;;;10.73;7.03;;;;;;;20.77;69.11;98673.78;5053482;28;20535;-70
2022/07/26 00:27:15;;;;;;;12.05;5.82;;;;;;;20.74;69.18;98673.81;5053387;28;20040;-71
2022/07/26 00:29:42;;;;;;;8.38;6.30;;;;;;;20.74;69.13;98680.28;5060797;28;20044;-66
2022/07/26 00:32:09;;;;;;;9.68;6.43;;;;;;;20.71;69.17;98674.66;5073003;28;20048;-66
2022/07/26 00:34:36;;;;;;;14.43;7.45;;;;;;;20.71;69.42;98671.81;5073608;28;20044;-66
2022/07/26 00:37:03;;;;;;;8.15;6.22;;;;;;;20.67;69.33;98666.22;5073505;28;20052;-66
2022/07/26 00:39:30;;;;;;;9.07;6.00;;;;;;;20.69;69.37;98671.47;5073838;28;20135;-66
2022/07/26 00:41:56;;;;;;;10.73;6.97;;;;;;;20.66;69.46;98666.66;5073252;28;20049;-66
2022/07/26 00:44:23;;;;;;;10.07;6.90;;;;;;;20.65;69.68;98662.19;5065172;28;20041;-68
2022/07/26 00:46:51;;;;;;;14.30;6.70;;;;;;;20.64;69.39;98660.59;5053052;28;20057;-68
2022/07/26 00:49:20;;;;;;;11.98;6.85;;;;;;;20.65;69.56;98667.84;5053562;28;20042;-68
2022/07/26 00:51:47;;;;;;;10.80;7.05;;;;;;;20.62;69.50;98660.22;5052808;28;20076;-68
2022/07/26 00:54:16;;;;;;;10.25;6.57;;;;;;;20.65;69.58;98665.03;5052581;28;20045;-68
2022/07/26 00:56:43;;;;;;;12.68;6.63;;;;;;;20.64;69.55;98663.44;5053273;28;20061;-67
2022/07/26 00:59:10;;;;;;;12.00;6.53;;;;;;;20.58;69.71;98660.28;5052867;28;20458;-68
2022/07/26 01:01:37;;;;;;;11.30;6.55;;;;;;;20.58;69.99;98659.47;5052901;28;20099;-68
2022/07/26 01:04:04;;;;;;;10.93;6.80;;;;;;;20.59;69.84;98661.88;5052525;28;20136;-68
2022/07/26 01:06:32;;;;;;;8.93;5.97;;;;;;;20.59;69.81;98661.88;5018570;28;20112;-69
2022/07/26 01:09:00;;;;;;;7.78;6.15;;;;;;;20.56;69.86;98662.72;5032541;28;20100;-68
2022/07/26 01:11:27;;;;;;;9.48;6.60;;;;;;;20.55;69.79;98663.13;5033137;28;20536;-68
2022/07/26 01:13:54;;;;;;;8.70;6.22;;;;;;;20.52;70.20;98661.13;5032833;28;20558;-69
2022/07/26 01:16:20;;;;;;;9.68;6.43;;;;;;;20.50;70.03;98652.28;5032904;28;20045;-68
2022/07/26 01:18:48;;;;;;;14.02;6.88;;;;;;;20.49;70.04;98651.47;5031785;28;20400;-67
2022/07/26 01:21:14;;;;;;;13.20;7.10;;;;;;;20.47;70.41;98653.09;5047593;28;20054;-68
2022/07/26 01:23:42;;;;;;;12.90;7.50;;;;;;;20.46;70.37;98646.66;5014597;28;20057;-67
2022/07/26 01:26:10;;;;;;;50.50;21.98;;;;;;;20.46;70.27;98648.69;5032624;28;20061;-66
2022/07/26 01:28:38;;;;;;;13.13;7.53;;;;;;;20.48;70.25;98655.53;5032855;28;20045;-68
2022/07/26 01:31:07;;;;;;;12.02;6.97;;;;;;;20.47;70.40;98653.94;5032922;28;20052;-68
2022/07/26 01:33:34;;;;;;;10.38;6.75;;;;;;;20.43;70.26;98660.84;5039717;28;20124;-68
2022/07/26 01:36:01;;;;;;;14.75;7.47;;;;;;;20.40;70.36;98658.84;5052883;28;20047;-67
2022/07/26 01:38:28;;;;;;;14.50;6.88;;;;;;;20.40;70.28;98672.97;5052165;28;20411;-68
2022/07/26 01:40:55;;;;;;;11.75;6.55;;;;;;;20.40;70.50;98670.16;5052505;28;20053;-67
2022/07/26 01:43:22;;;;;;;15.35;7.38;;;;;;;20.39;70.46;98665.69;5052187;28;20072;-70
2022/07/26 01:45:49;;;;;;;14.63;7.90;;;;;;;20.37;70.55;98668.94;5052532;28;20049;-70
2022/07/26 01:48:16;;;;;;;10.85;6.65;;;;;;;20.36;70.56;98666.53;5034444;28;20052;-72
2022/07/26 01:50:43;;;;;;;17.38;7.60;;;;;;;20.34;70.80;98677.47;5052445;28;20060;-70
2022/07/26 01:53:10;;;;;;;17.35;6.75;;;;;;;20.34;70.85;98672.59;5052342;28;20402;-70
2022/07/26 01:55:37;;;;;;;12.63;6.70;;;;;;;20.34;70.75;98677.47;5052411;28;20053;-70
2022/07/26 01:58:05;;;;;;;21.30;8.75;;;;;;;20.29;70.87;98680.75;5052305;28;20049;-70
2022/07/26 02:00:33;;;;;;;13.85;7.00;;;;;;;20.28;70.84;98681.97;5051987;28;20063;-70
2022/07/26 02:03:00;;;;;;;18.13;7.15;;;;;;;20.27;71.03;98683.16;5052280;28;20583;-71
2022/07/26 02:05:28;;;;;;;11.75;6.97;;;;;;;20.25;71.15;98682.81;5044625;28;20059;-68
2022/07/26 02:07:55;;;;;;;12.35;7.28;;;;;;;20.27;71.25;98686.00;5032149;28;20523;-69
2022/07/26 02:10:22;;;;;;;15.38;7.70;;;;;;;20.27;71.09;98688.81;5032492;28;20053;-67
2022/07/26 02:12:49;;;;;;;13.02;7.90;;;;;;;20.28;71.05;98679.94;5031856;28;20063;-68
2022/07/26 02:15:36;;;;;;;12.73;6.88;;;;;;;20.31;70.80;98689.59;5017836;28;20050;-68
2022/07/26 02:18:04;;;;;;;22.08;8.25;;;;;;;20.33;71.03;98681.50;5032218;28;20472;-68
2022/07/26 02:20:32;;;;;;;16.33;7.18;;;;;;;20.35;70.96;98690.38;5031998;28;20053;-67
2022/07/26 02:23:03;;;;;;;11.50;8.00;;;;;;;20.37;71.08;98687.94;5032077;28;20123;-67
2022/07/26 02:25:29;;;;;;;11.55;7.80;;;;;;;20.35;71.03;98690.38;5031879;28;20422;-67
2022/07/26 02:27:56;;;;;;;18.00;7.88;;;;;;;20.37;70.90;98687.94;5031886;28;20046;-68
2022/07/26 02:30:23;;;;;;;15.23;7.68;;;;;;;20.39;70.61;98693.94;5031870;28;20049;-67
2022/07/26 02:32:50;;;;;;;14.93;7.50;;;;;;;20.40;70.66;98692.75;5038583;28;20392;-67
2022/07/26 02:35:17;;;;;;;17.55;7.18;;;;;;;20.37;71.08;98697.19;5055753;28;20045;-66
2022/07/26 02:37:44;;;;;;;11.93;7.90;;;;;;;20.40;71.00;98698.41;5037545;28;20036;-66
2022/07/26 02:40:11;;;;;;;10.27;7.07;;;;;;;20.41;70.84;98706.47;5055477;28;20057;-67
2022/07/26 02:42:44;;;;;;;13.75;7.82;;;;;;;20.46;70.81;98710.84;5055411;28;20111;-67
2022/07/26 02:45:11;;;;;;;11.27;7.25;;;;;;;20.51;70.87;98704.72;5055706;28;20049;-67
2022/07/26 02:47:48;;;;;;;19.25;7.80;;;;;;;20.55;70.76;98711.97;5055287;28;20467;-67
2022/07/26 02:50:20;;;;;;;10.00;7.43;;;;;;;20.59;70.45;98712.72;5055436;28;20130;-67
2022/07/26 02:52:48;;;;;;;15.07;7.75;;;;;;;20.58;70.61;98710.31;5055193;28;20139;-67
2022/07/26 02:55:16;;;;;;;11.15;7.10;;;;;;;20.65;70.23;98715.91;5055267;28;20141;-68
2022/07/26 02:57:43;;;;;;;12.85;7.20;;;;;;;20.68;70.44;98720.72;5055089;28;20076;-68
2022/07/26 03:00:14;;;;;;;13.20;7.63;;;;;;;20.70;70.44;98726.75;5055180;28;20057;-67
2022/07/26 03:02:42;;;;;;;12.65;8.13;;;;;;;20.64;70.42;98726.41;5055004;28;20078;-71
2022/07/26 03:05:09;;;;;;;10.18;7.35;;;;;;;20.63;70.71;98718.38;5055011;28;20432;-69
2022/07/26 03:07:37;;;;;;;13.75;7.93;;;;;;;20.69;70.54;98722.34;5055014;28;20056;-68
2022/07/26 03:10:05;;;;;;;11.00;7.88;;;;;;;20.73;70.52;98723.09;5054935;28;20057;-68
2022/07/26 03:12:32;;;;;;;11.35;7.78;;;;;;;20.78;70.47;98728.28;5054789;28;20526;-67
2022/07/26 03:14:59;;;;;;;13.20;8.18;;;;;;;20.81;70.31;98738.75;5054707;28;20049;-68
2022/07/26 03:17:26;;;;;;;16.45;8.18;;;;;;;20.83;69.99;98734.28;5054925;28;20056;-68
2022/07/26 03:19:53;;;;;;;10.88;8.18;;;;;;;20.90;69.97;98736.25;5054868;28;20072;-68
2022/07/26 03:22:20;;;;;;;11.35;8.10;;;;;;;20.97;69.68;98730.53;5054394;28;20064;-68
2022/07/26 03:24:46;;;;;;;11.35;7.65;;;;;;;21.02;69.78;98735.72;5054688;28;20431;-68
2022/07/26 03:27:16;;;;;;;14.00;7.93;;;;;;;21.07;69.57;98740.91;5054586;28;20059;-68
2022/07/26 03:29:43;;;;;;;11.60;8.00;;;;;;;21.16;69.44;98746.84;5054571;28;20045;-68
2022/07/26 03:32:09;;;;;;;15.45;8.43;;;;;;;21.22;69.24;98745.16;5055052;28;20060;-67
2022/07/26 03:34:36;;;;;;;12.68;7.97;;;;;;;21.29;69.32;98745.88;5054617;28;20137;-66
2022/07/26 03:37:03;;;;;;;17.15;8.13;;;;;;;21.40;68.88;98740.91;5054404;28;20053;-66
2022/07/26 03:39:30;;;;;;;12.27;8.65;;;;;;;21.53;68.38;98743.97;5036694;28;20041;-66
2022/07/26 03:41:57;;;;;;;11.10;7.55;;;;;;;21.66;68.12;98737.31;5054227;28;20548;-66
2022/07/26 03:44:24;;;;;;;15.85;8.68;;;;;;;21.80;67.80;98744.03;5054222;28;20504;-70
2022/07/26 03:46:51;;;;;;;12.63;7.90;;;;;;;21.88;67.52;98732.19;5036680;28;20080;-71
2022/07/26 03:49:18;;;;;;;13.00;8.02;;;;;;;21.95;67.27;98732.06;5054166;28;20041;-71
2022/07/26 03:51:45;;;;;;;17.58;8.55;;;;;;;22.00;66.97;98734.44;5054004;28;20140;-68
2022/07/26 03:54:12;;;;;;;16.52;8.43;;;;;;;22.07;66.81;98739.97;5053863;28;20519;-68
2022/07/26 03:56:39;;;;;;;17.48;8.77;;;;;;;22.11;66.54;98740.69;5054082;28;20132;-68
2022/07/26 03:59:09;;;;;;;11.88;8.45;;;;;;;22.14;66.32;98734.19;5053720;28;20530;-68
2022/07/26 04:01:40;;;;;;;14.10;8.02;;;;;;;22.16;66.36;98730.91;5054219;28;20431;-68
2022/07/26 04:04:08;;;;;;;12.30;7.95;;;;;;;22.16;66.28;98736.59;5053824;28;20511;-68
2022/07/26 04:06:37;;;;;;;12.13;8.60;;;;;;;22.18;66.09;98732.09;5019804;28;20046;-67
2022/07/26 04:09:06;;;;;;;14.45;8.13;;;;;;;22.23;66.19;98731.59;5033833;28;20128;-67
2022/07/26 04:11:34;;;;;;;14.85;8.43;;;;;;;22.27;65.92;98732.38;5033899;28;20069;-67
2022/07/26 04:14:01;;;;;;;13.65;8.48;;;;;;;22.33;65.77;98741.97;5033726;28;20049;-68
2022/07/26 04:16:28;;;;;;;19.63;9.02;;;;;;;22.37;65.91;98741.91;5033537;28;20057;-68
2022/07/26 04:18:55;;;;;;;13.80;8.48;;;;;;;22.43;65.60;98734.50;5033435;28;20076;-69
2022/07/26 04:21:22;;;;;;;13.52;9.75;;;;;;;22.46;65.51;98734.44;5016157;28;20131;-69
2022/07/26 04:23:50;;;;;;;16.45;8.35;;;;;;;22.51;65.40;98734.00;5033351;28;20079;-68
2022/07/26 04:26:20;;;;;;;14.13;8.45;;;;;;;22.61;65.16;98733.00;5033248;28;20061;-67
2022/07/26 04:28:47;;;;;;;14.93;8.98;;;;;;;22.68;64.80;98732.06;5034383;28;20514;-68
2022/07/26 04:31:14;;;;;;;14.57;7.78;;;;;;;22.80;64.73;98737.91;5053386;28;20064;-67
2022/07/26 04:33:41;;;;;;;16.20;9.20;;;;;;;22.88;64.47;98733.72;5052997;28;20148;-67
2022/07/26 04:36:08;;;;;;;14.05;9.35;;;;;;;22.95;64.40;98727.88;5035837;28;20048;-69
2022/07/26 04:38:35;;;;;;;12.43;9.40;;;;;;;23.02;63.81;98733.44;5035516;28;20052;-68
2022/07/26 04:41:02;;;;;;;13.93;9.27;;;;;;;23.11;63.49;98730.81;5053217;28;20052;-68
2022/07/26 04:43:29;;;;;;;15.45;8.50;;;;;;;23.23;63.35;98729.38;5052829;28;20044;-68
2022/07/26 04:45:56;;;;;;;20.35;9.60;;;;;;;23.30;62.88;98732.88;5053070;28;20049;-69
2022/07/26 04:48:24;;;;;;;11.98;8.13;;;;;;;23.33;63.11;98732.00;5052731;28;20103;-68
2022/07/26 04:50:53;;;;;;;15.65;9.63;;;;;;;23.38;62.79;98739.22;5053392;28;20047;-68
2022/07/26 04:53:21;;;;;;;16.27;8.55;;;;;;;23.36;62.83;98736.03;5053012;28;20088;-68
2022/07/26 04:55:47;;;;;;;13.60;8.50;;;;;;;23.42;62.53;98743.56;5052339;28;20048;-68
2022/07/26 04:58:14;;;;;;;15.88;9.48;;;;;;;23.56;62.69;98744.53;5052788;28;20045;-68
2022/07/26 05:00:44;;;;;;;18.77;8.93;;;;;;;23.66;61.98;98743.50;5052612;28;20084;-69
2022/07/26 05:03:31;;;;;;;19.05;9.45;;;;;;;23.79;61.83;98738.72;5052579;28;20053;-68
2022/07/26 05:05:58;;;;;;;13.02;8.25;;;;;;;23.90;61.06;98736.44;5040950;28;20053;-67
2022/07/26 05:08:28;;;;;;;14.85;8.80;;;;;;;24.01;60.88;98737.81;5032552;28;20467;-68
2022/07/26 05:10:57;;;;;;;;;;;;;;;23.95;61.04;98738.78;5033305;28;20050;-68
2022/07/26 05:13:24;;;;;;;;;;;;;;;23.99;60.83;98736.66;5032979;28;19929;-68
2022/07/26 05:15:58;;;;;;;14.38;8.57;;;;;;;24.21;60.01;98730.03;5032636;28;19987;-67
2022/07/26 05:18:25;;;;;;;17.63;8.40;;;;;;;24.39;59.40;98729.59;5032831;28;20049;-68
2022/07/26 05:20:55;;;;;;;;;;;;;;;24.46;59.77;98740.78;5033288;28;20052;-65
2022/07/26 05:23:22;;;;;;;14.85;7.70;;;;;;;24.74;59.07;98742.91;5032299;28;20291;-69
2022/07/26 05:25:49;;;;;;;11.90;7.95;;;;;;;24.98;57.84;98742.25;5015226;28;20064;-66
2022/07/26 05:28:18;;;;;;;13.10;7.43;;;;;;;25.17;57.46;98753.94;5032164;28;20053;-67
2022/07/26 05:30:45;;;;;;;16.65;8.75;;;;;;;25.39;56.47;98752.13;5032618;28;20051;-68
2022/07/26 05:33:12;;;;;;;13.90;6.97;;;;;;;25.64;55.76;98755.84;5039325;28;20053;-67
2022/07/26 05:35:42;;;;;;;12.80;8.40;;;;;;;25.90;54.69;98753.84;5052460;28;20132;-66
2022/07/26 05:38:09;;;;;;;11.73;7.72;;;;;;;26.11;54.01;98754.00;5052472;28;20071;-66
2022/07/26 05:40:36;;;;;;;8.50;6.53;;;;;;;26.31;53.41;98748.06;5052189;28;20053;-66
2022/07/26 05:43:03;;;;;;;12.30;7.85;;;;;;;26.62;52.53;98749.88;5052072;28;20055;-67
2022/07/26 05:45:30;;;;;;;11.15;6.80;;;;;;;26.80;51.89;98746.44;5052284;28;20393;-67
2022/07/26 05:47:57;;;;;;;12.05;7.20;;;;;;;26.88;51.86;98755.53;5052286;28;20080;-65
2022/07/26 05:50:24;;;;;;;10.60;7.13;;;;;;;26.94;51.71;98745.91;5052443;28;20053;-67
2022/07/26 05:52:51;;;;;;;16.33;7.70;;;;;;;27.13;50.47;98744.03;5052154;28;20504;-68
2022/07/26 05:55:18;;;;;;;14.48;7.68;;;;;;;27.32;49.74;98742.97;5034166;28;20419;-67
2022/07/26 05:57:48;;;;;;;11.20;6.30;;;;;;;27.60;49.66;98739.84;5052106;28;20053;-66
2022/07/26 06:00:15;;;;;;;7.88;6.20;;;;;;;27.91;48.86;98746.38;5052253;28;20151;-67
2022/07/26 06:02:42;;;;;;;12.85;7.53;;;;;;;28.27;47.57;98740.06;5052037;28;20041;-70
2022/07/26 06:05:09;;;;;;;10.77;6.88;;;;;;;28.67;46.06;98740.84;5051687;28;20518;-69
2022/07/26 06:07:36;;;;;;;10.43;6.50;;;;;;;29.12;44.57;98752.38;5053846;28;20045;-70
2022/07/26 06:10:04;;;;;;;8.57;5.93;;;;;;;30.17;42.20;98746.69;5055746;28;20055;-69
2022/07/26 06:12:31;;;;;;;9.80;6.93;;;;;;;32.07;37.88;98734.66;5055935;28;20140;-69
2022/07/26 06:14:58;;;;;;;8.85;6.28;;;;;;;34.94;33.10;98740.97;5055956;28;20062;-69
2022/07/26 06:17:28;;;;;;;13.60;7.15;;;;;;;37.44;29.09;98740.72;5056031;28;20144;-72
2022/07/26 06:19:57;;;;;;;8.63;6.18;;;;;;;38.27;27.30;98738.09;5037727;28;20037;-71
2022/07/26 06:22:24;;;;;;;8.97;5.93;;;;;;;37.34;28.79;98746.03;5055449;28;20250;-69
2022/07/26 06:24:51;;;;;;;9.68;6.75;;;;;;;35.63;31.42;98742.34;5055436;28;20091;-69
2022/07/26 06:27:18;;;;;;;10.57;6.32;;;;;;;35.41;31.50;98745.97;5037708;28;20045;-68
2022/07/26 06:29:47;;;;;;;17.75;6.80;;;;;;;35.72;30.46;98742.91;5055638;28;20055;-71
2022/07/26 06:32:14;;;;;;;12.07;7.20;;;;;;;35.10;31.03;98746.06;5055616;28;20503;-69
2022/07/26 06:34:41;;;;;;;11.77;7.15;;;;;;;33.66;33.27;98746.94;5055502;28;20483;-67
2022/07/26 06:37:08;;;;;;;15.98;7.43;;;;;;;31.99;36.42;98747.84;5055277;28;20049;-66
2022/07/26 06:39:34;;;;;;;11.75;7.40;;;;;;;30.90;38.36;98750.81;5055445;28;20496;-69
2022/07/26 06:42:02;;;;;;;12.15;7.57;;;;;;;31.22;38.25;98752.03;5055546;28;20052;-68
2022/07/26 06:44:28;;;;;;;14.60;7.30;;;;;;;31.66;37.07;98742.25;5055083;28;20049;-69
2022/07/26 06:46:55;;;;;;;13.73;7.88;;;;;;;32.48;35.53;98739.28;5055002;28;20048;-69
2022/07/26 06:49:22;;;;;;;16.38;8.15;;;;;;;31.48;37.58;98744.50;5055138;28;20449;-69
2022/07/26 06:51:49;;;;;;;13.50;7.63;;;;;;;30.33;39.98;98743.47;5054894;28;20057;-69
2022/07/26 06:54:16;;;;;;;10.13;7.38;;;;;;;29.63;40.96;98741.88;5055016;28;20514;-67
2022/07/26 06:56:43;;;;;;;9.35;6.82;;;;;;;29.27;42.01;98741.88;5054168;28;20508;-63
2022/07/26 06:59:10;;;;;;;14.68;6.95;;;;;;;29.10;41.81;98736.97;5054190;28;20431;-61
2022/07/26 07:01:37;;;;;;;9.50;6.65;;;;;;;29.84;40.37;98738.00;5054463;28;20045;-62
2022/07/26 07:04:24;;;;;;;9.68;6.90;;;;;;;33.07;34.44;98731.25;5051788;28;20052;-64
2022/07/26 07:06:51;;;;;;;11.80;6.57;;;;;;;37.15;28.38;98729.72;5053629;28;20048;-62
2022/07/26 07:09:18;;;;;;;10.23;6.50;;;;;;;39.83;25.07;98727.97;5044849;28;20140;-64
2022/07/26 07:11:48;;;;;;;11.20;6.72;;;;;;;41.33;22.97;98737.81;5042806;28;20072;-63
2022/07/26 07:14:24;;;;;;;7.15;6.05;;;;;;;42.16;22.13;98730.94;5054865;28;20159;-64
2022/07/26 07:16:51;;;;;;;12.15;6.30;;;;;;;43.72;20.19;98737.88;5054910;28;20060;-63
2022/07/26 07:19:18;;;;;;;10.48;6.43;;;;;;;45.58;18.61;98729.06;5053691;28;20049;-63
2022/07/26 07:21:44;;;;;;;15.50;6.03;;;;;;;47.12;16.70;98735.78;5054296;28;20076;-63
2022/07/26 07:24:11;;;;;;;9.38;6.22;;;;;;;48.12;16.30;98737.81;5040884;28;20076;-63
2022/07/26 07:26:39;;;;;;;14.00;5.75;;;;;;;49.16;14.93;98738.31;5050764;28;20053;-63
2022/07/26 07:29:06;;;;;;;6.03;5.10;;;;;;;49.14;14.46;98729.31;5037748;28;20052;-63
2022/07/26 07:31:32;;;;;;;7.47;5.47;;;;;;;49.31;14.19;98738.06;5052528;28;20443;-64
2022/07/26 07:34:17;;;;;;;10.27;6.35;;;;;;;49.18;14.31;98732.56;5053786;28;20423;-63
2022/07/26 07:36:45;;;;;;;11.27;5.85;;;;;;;49.29;13.87;98734.94;5051764;28;20546;-64
2022/07/26 07:39:12;;;;;;;11.30;6.82;;;;;;;49.91;13.69;98736.09;5051209;28;20045;-64
2022/07/26 07:41:44;;;;;;;7.90;5.82;;;;;;;50.94;12.46;98738.63;5038335;28;20134;-64
2022/07/26 07:44:12;;;;;;;8.15;5.30;;;;;;;52.01;12.02;98732.91;5046711;28;20497;-63
2022/07/26 07:46:39;;;;;;;29.77;10.68;;;;;;;52.68;11.59;98728.47;5050413;28;20498;-62
2022/07/26 07:49:06;;;;;;;9.98;5.78;;;;;;;53.08;11.45;98734.00;5046580;28;20049;-64
2022/07/26 07:51:33;;;;;;;10.02;6.97;;;;;;;53.53;10.67;98733.19;5051873;28;20041;-63
2022/07/26 07:54:19;;;;;;;7.80;5.63;;;;;;;53.83;10.26;98735.03;5052245;28;20055;-63
2022/07/26 07:56:48;;;;;;;13.20;5.72;;;;;;;54.05;10.13;98732.63;5034357;28;20067;-64
2022/07/26 07:59:14;;;;;;;10.52;5.63;;;;;;;54.44;9.81;98735.66;5048772;28;20041;-64
2022/07/26 08:01:41;;;;;;;9.60;5.20;;;;;;;54.51;9.82;98726.44;5052253;28;20131;-64
2022/07/26 08:04:13;;;;;;;8.40;5.97;;;;;;;54.53;9.84;98726.56;5052995;28;20152;-63
2022/07/26 08:06:40;;;;;;;10.85;5.88;;;;;;;55.27;9.10;98715.84;5047880;28;20055;-63
2022/07/26 08:09:16;;;;;;;11.60;5.10;;;;;;;55.94;9.10;98719.38;5049978;28;20488;-63
2022/07/26 08:11:43;;;;;;;8.55;5.55;;;;;;;56.36;8.57;98722.31;5035608;28;20522;-63
2022/07/26 08:14:10;;;;;;;9.43;5.15;;;;;;;56.36;8.21;98721.53;5049853;28;20049;-63
2022/07/26 08:16:38;;;;;;;13.20;5.28;;;;;;;56.12;8.25;98718.13;5052828;28;20049;-64
2022/07/26 08:19:06;;;;;;;8.25;5.30;;;;;;;56.14;8.61;98720.44;5053060;28;20036;-67
2022/07/26 08:21:34;;;;;;;15.43;6.35;;;;;;;55.86;8.39;98719.72;5053327;28;20132;-67
2022/07/26 08:24:01;;;;;;;12.85;6.22;;;;;;;56.08;8.47;98720.88;5053048;28;20045;-66
2022/07/26 08:26:28;;;;;;;71.97;17.75;;;;;;;55.70;8.40;98718.88;5053310;28;20041;-66
2022/07/26 08:28:55;;;;;;;8.98;5.78;;;;;;;56.11;8.23;98718.78;5052784;28;20049;-66
2022/07/26 08:31:27;;;;;;;9.20;5.57;;;;;;;54.70;9.03;98710.38;5051739;28;20090;-63
2022/07/26 08:33:54;;;;;;;11.80;5.63;;;;;;;54.81;9.25;98721.44;5052205;28;20139;-63
2022/07/26 08:36:22;;;;;;;7.10;6.00;;;;;;;55.72;8.32;98715.22;5052911;28;20404;-63
2022/07/26 08:38:49;;;;;;;12.73;5.47;;;;;;;56.50;8.20;98716.28;5052977;28;20049;-63
2022/07/26 08:41:17;;;;;;;9.82;5.55;;;;;;;56.53;7.68;98715.69;5052447;28;20535;-63
2022/07/26 08:43:45;;;;;;;9.43;5.85;;;;;;;56.97;7.47;98723.81;5052210;28;20064;-62
2022/07/26 08:46:23;;;;;;;10.52;5.43;;;;;;;56.77;7.32;98713.13;5052826;28;20139;-62
2022/07/26 08:48:55;;;;;;;11.98;5.47;;;;;;;56.63;7.40;98715.44;5052565;28;20076;-63
2022/07/26 08:51:25;;;;;;;8.93;5.57;;;;;;;54.36;9.37;98715.13;5034145;28;20063;-63
2022/07/26 08:53:57;;;;;;;10.10;5.68;;;;;;;53.94;9.86;98709.66;5052224;28;20424;-62
2022/07/26 08:56:36;;;;;;;7.75;4.93;;;;;;;55.46;8.65;98712.41;5052676;28;20053;-61
2022/07/26 08:59:05;;;;;;;5.97;5.13;;;;;;;56.67;7.44;98710.41;5051838;28;20052;-62
2022/07/26 09:01:33;;;;;;;8.25;5.55;;;;;;;57.14;7.45;98704.41;5051998;28;20056;-62
2022/07/26 09:04:18;;;;;;;9.35;5.55;;;;;;;57.32;7.58;98707.50;5035130;28;20088;-62
2022/07/26 09:07:00;;;;;;;9.32;5.32;;;;;;;56.89;8.06;98719.66;5051770;28;20053;-62
2022/07/26 09:09:28;;;;;;;8.10;5.80;;;;;;;56.57;7.26;98712.91;5040733;28;20048;-62
2022/07/26 09:11:56;;;;;;;6.80;5.40;;;;;;;56.94;7.50;98712.47;5040843;28;20514;-62
2022/07/26 09:14:35;;;;;;;10.95;5.70;;;;;;;57.21;7.39;98718.22;5052101;28;20443;-63
2022/07/26 09:17:03;;;;;;;6.70;5.60;;;;;;;57.59;6.50;98713.97;5051615;28;20052;-62
2022/07/26 09:19:30;;;;;;;9.57;5.50;;;;;;;57.89;6.67;98720.53;5051590;28;20041;-61
2022/07/26 09:22:08;;;;;;;9.30;5.18;;;;;;;57.97;7.06;98723.91;5032765;28;20061;-63
2022/07/26 09:24:40;;;;;;;6.93;5.50;;;;;;;57.51;7.20;98725.56;5041657;28;20556;-63
2022/07/26 09:27:10;;;;;;;10.02;4.97;;;;;;;57.85;7.00;98727.13;5050947;28;20045;-63
2022/07/26 09:29:44;;;;;;;13.40;5.28;;;;;;;58.17;5.79;98722.53;5047501;28;20042;-61
2022/07/26 09:32:21;;;;;;;10.70;5.15;;;;;;;57.12;6.32;98726.03;5046398;28;20091;-63
2022/07/26 09:35:14;;;;;;;7.15;4.93;;;;;;;55.33;7.97;98722.13;5032551;28;20053;-61
2022/07/26 09:38:12;;;;;;;7.82;4.63;;;;;;;57.07;7.16;98714.56;5038743;28;20500;-61
2022/07/26 09:40:40;;;;;;;11.05;4.53;;;;;;;57.68;6.99;98718.09;5052040;28;20075;-62
2022/07/26 09:43:15;;;;;;;11.65;4.65;;;;;;;55.52;7.45;98706.75;5051435;28;20415;-62
2022/07/26 09:46:04;;;;;;;9.40;5.30;;;;;;;50.14;10.89;98700.09;5056262;28;20479;-62
2022/07/26 09:48:31;;;;;;;10.20;4.88;;;;;;;46.66;13.56;98687.47;5055903;28;20084;-62
2022/07/26 09:51:34;;;;;;;10.75;6.15;;;;;;;43.06;16.43;98690.78;5054370;28;20045;-62
2022/07/26 09:54:02;;;;;;;12.07;7.65;;;;;;;40.84;18.73;98689.94;5052004;28;20136;-62
2022/07/26 09:56:45;;;;;;;10.57;6.40;;;;;;;39.32;20.09;98694.22;5055770;28;20061;-62
2022/07/26 09:59:14;;;;;;;15.55;5.95;;;;;;;38.32;21.40;98697.38;5053975;28;20099;-63
2022/07/26 10:01:42;;;;;;;9.63;6.10;;;;;;;37.59;22.90;98694.72;5048698;28;20055;-61
2022/07/26 10:04:09;;;;;;;;;;;;;;;37.02;22.75;98692.59;5055812;28;20091;-62
2022/07/26 10:06:38;;;;;;;8.57;5.47;;;;;;;36.69;22.98;98699.25;5055257;28;20288;-61
2022/07/26 10:09:06;;;;;;;9.30;6.57;;;;;;;36.14;24.06;98699.28;5054933;28;20063;-61
2022/07/26 10:11:56;;;;;;;8.98;6.15;;;;;;;35.77;24.53;98703.69;5055750;28;20083;-61
2022/07/26 10:14:32;;;;;;;7.03;5.60;;;;;;;35.39;24.98;98690.72;5055632;28;20049;-61
2022/07/26 10:17:20;;;;;;;8.27;5.95;;;;;;;34.82;25.44;98696.75;5055176;28;20127;-61
2022/07/26 10:19:56;;;;;;;6.88;5.85;;;;;;;34.63;26.49;98697.66;5047128;28;20095;-62
2022/07/26 10:22:29;;;;;;;9.07;6.22;;;;;;;34.71;26.98;98698.78;5055259;28;20056;-62
2022/07/26 10:25:17;;;;;;;7.78;5.70;;;;;;;34.62;27.06;98701.88;5054968;28;20069;-62
2022/07/26 10:27:47;;;;;;;17.17;9.13;;;;;;;34.43;27.09;98701.47;5025912;28;20554;-62
2022/07/26 10:30:17;;;;;;;7.07;5.88;;;;;;;34.26;26.48;98696.84;5044420;28;20053;-62
2022/07/26 10:32:52;;;;;;;7.68;5.32;;;;;;;33.71;26.39;98702.91;5054561;28;20427;-63
2022/07/26 10:35:52;;;;;;;9.80;6.35;;;;;;;33.47;28.06;98698.72;5054302;28;20086;-61
2022/07/26 10:38:24;;;;;;;12.35;6.40;;;;;;;33.53;28.37;98694.59;5054559;28;20511;-62
2022/07/26 10:40:59;;;;;;;8.15;6.07;;;;;;;33.60;28.26;98696.25;5055607;28;20053;-62
2022/07/26 10:43:27;;;;;;;7.63;6.03;;;;;;;33.51;28.59;98691.44;5052653;28;20083;-62
2022/07/26 10:46:16;;;;;;;7.70;6.22;;;;;;;33.39;29.23;98690.50;5074334;28;20503;-61
2022/07/26 10:49:05;;;;;;;12.60;9.38;;;;;;;32.96;29.77;98682.91;5047745;28;20040;-61
2022/07/26 10:51:38;;;;;;;10.23;7.70;;;;;;;32.72;30.47;98685.16;5038226;28;20084;-61
2022/07/26 10:54:10;;;;;;;8.85;6.78;;;;;;;32.67;30.62;98688.75;5054054;28;20150;-61
2022/07/26 10:56:41;;;;;;;7.20;5.93;;;;;;;32.71;30.58;98683.56;5055655;28;20051;-62
2022/07/26 10:59:28;;;;;;;12.88;7.13;;;;;;;32.74;30.02;98682.56;5054714;28;20054;-60
2022/07/26 11:02:20;;;;;;;11.52;5.88;;;;;;;32.59;30.50;98676.06;5054890;28;20064;-61
2022/07/26 11:04:58;;;;;;;11.38;6.88;;;;;;;32.70;30.39;98675.41;5052703;28;20055;-61
2022/07/26 11:07:30;;;;;;;9.90;6.85;;;;;;;32.73;30.47;98671.53;5041121;28;20085;-61
2022/07/26 11:09:58;;;;;;;6.72;5.90;;;;;;;32.66;30.36;98672.78;5053795;28;20051;-62
2022/07/26 11:12:26;;;;;;;9.88;6.00;;;;;;;32.46;31.50;98666.97;5049108;28;20537;-63
2022/07/26 11:14:53;;;;;;;13.65;6.97;;;;;;;32.54;32.01;98673.91;5049830;28;20076;-62
2022/07/26 11:17:25;;;;;;;11.30;7.47;;;;;;;32.44;30.91;98663.03;5044995;28;20465;-62
2022/07/26 11:19:53;;;;;;;16.00;6.80;;;;;;;32.21;30.35;98667.63;5048065;28;20547;-63
2022/07/26 11:22:23;;;;;;;9.45;7.05;;;;;;;32.15;30.24;98663.88;5048858;28;20051;-61
2022/07/26 11:25:08;;;;;;;9.63;6.20;;;;;;;31.95;29.67;98672.44;5062642;28;20075;-62
2022/07/26 11:27:36;;;;;;;9.00;5.55;;;;;;;31.85;29.96;98665.19;5036422;28;20135;-64
2022/07/26 11:30:12;;;;;;;15.77;6.63;;;;;;;31.90;30.14;98670.25;5039015;28;20045;-63
2022/07/26 11:32:39;;;;;;;8.23;6.15;;;;;;;31.93;30.19;98663.50;5044631;28;20044;-62
2022/07/26 11:35:06;;;;;;;7.97;6.57;;;;;;;31.92;30.63;98656.16;5048782;28;20060;-63
2022/07/26 11:37:33;;;;;;;10.30;7.18;;;;;;;31.98;31.40;98653.38;5044702;28;20048;-60
2022/07/26 11:40:03;;;;;;;9.93;6.55;;;;;;;32.08;31.74;98651.94;5047748;28;20044;-63
2022/07/26 11:42:29;;;;;;;11.73;7.20;;;;;;;32.13;31.42;98643.44;5047359;28;20040;-63
2022/07/26 11:44:59;;;;;;;13.10;6.57;;;;;;;32.17;30.79;98644.00;5055161;28;20091;-64